Archival Weather

Chicago O'Hare International

Chicago, Illinois (KORD)

Report from: Sunday, November 19, 2023 12:51 PM CST
Current time: Sunday, February 25, 2024 2:53 PM CST

Current weather – Weather history – Daily summaries
Weather forecast

Temperature12.2°C (54.0°F)
Dew point2.2°C (36.0°F)
Winds 6 kts (3.1 m/s, 6.9 mph) Vrb
Winds variableWinds variable
Visibility10 mi. (16.1 km)
Clouds Few clouds 25,000 ft. (7,620 m)
Altimeter30.04 in.Hg (1017 mB)
Relative humidity50 %
Density altitude-369 ft. (-112 m)
Sea-level pressure101.8 kPa (1018 mB, 30.05 in.Hg)
Remarks Automated weather observing station with precipitation discriminator
Flight conditions Visual Meteorological Conditions
Raw dataKORD 191851Z VRB06KT 10SM FEW250 12/02 A3004 RMK AO2 SLP175 T01220022
An error has occurred. This application may no longer respond until reloaded. Reload 🗙